sensor_id;sensor_type;location;lat;lon;timestamp;P1;durP1;ratioP1;P2;durP2;ratioP2
74293;SDS011;64044;59.904;10.738;2023-02-08T00:01:39;56.45;;;8.80;;
74293;SDS011;64044;59.904;10.738;2023-02-08T00:04:05;40.40;;;7.10;;
74293;SDS011;64044;59.904;10.738;2023-02-08T00:06:30;44.40;;;8.57;;
74293;SDS011;64044;59.904;10.738;2023-02-08T00:08:56;57.95;;;9.18;;
74293;SDS011;64044;59.904;10.738;2023-02-08T00:11:22;40.47;;;8.25;;
74293;SDS011;64044;59.904;10.738;2023-02-08T00:13:48;40.45;;;7.88;;
74293;SDS011;64044;59.904;10.738;2023-02-08T00:16:13;40.38;;;7.72;;
74293;SDS011;64044;59.904;10.738;2023-02-08T00:18:39;35.38;;;7.97;;
74293;SDS011;64044;59.904;10.738;2023-02-08T00:21:06;36.45;;;7.85;;
74293;SDS011;64044;59.904;10.738;2023-02-08T00:23:33;36.65;;;7.85;;
74293;SDS011;64044;59.904;10.738;2023-02-08T00:25:59;38.35;;;7.75;;
74293;SDS011;64044;59.904;10.738;2023-02-08T00:28:24;42.35;;;8.20;;
74293;SDS011;64044;59.904;10.738;2023-02-08T00:30:51;26.17;;;7.70;;
74293;SDS011;64044;59.904;10.738;2023-02-08T00:33:17;30.42;;;7.68;;
74293;SDS011;64044;59.904;10.738;2023-02-08T00:35:43;26.90;;;7.40;;
74293;SDS011;64044;59.904;10.738;2023-02-08T00:38:08;35.05;;;7.18;;
74293;SDS011;64044;59.904;10.738;2023-02-08T00:40:34;26.13;;;7.47;;
74293;SDS011;64044;59.904;10.738;2023-02-08T00:43:00;29.13;;;6.85;;
74293;SDS011;64044;59.904;10.738;2023-02-08T00:45:26;39.15;;;7.18;;
74293;SDS011;64044;59.904;10.738;2023-02-08T00:47:52;35.28;;;7.78;;
74293;SDS011;64044;59.904;10.738;2023-02-08T00:50:18;41.25;;;7.72;;
74293;SDS011;64044;59.904;10.738;2023-02-08T00:52:44;28.95;;;6.32;;
74293;SDS011;64044;59.904;10.738;2023-02-08T00:58:00;32.38;;;7.68;;
74293;SDS011;64044;59.904;10.738;2023-02-08T01:00:26;59.60;;;7.85;;
74293;SDS011;64044;59.904;10.738;2023-02-08T01:02:52;52.65;;;8.07;;
74293;SDS011;64044;59.904;10.738;2023-02-08T01:05:17;64.25;;;7.78;;
74293;SDS011;64044;59.904;10.738;2023-02-08T01:07:43;56.05;;;7.68;;
74293;SDS011;64044;59.904;10.738;2023-02-08T01:10:09;60.28;;;7.15;;
74293;SDS011;64044;59.904;10.738;2023-02-08T01:12:36;36.67;;;6.68;;
74293;SDS011;64044;59.904;10.738;2023-02-08T01:15:02;38.35;;;8.40;;
74293;SDS011;64044;59.904;10.738;2023-02-08T01:17:29;43.38;;;7.47;;
74293;SDS011;64044;59.904;10.738;2023-02-08T01:19:54;39.60;;;7.35;;
74293;SDS011;64044;59.904;10.738;2023-02-08T01:22:20;31.70;;;6.78;;
74293;SDS011;64044;59.904;10.738;2023-02-08T01:24:46;66.70;;;7.53;;
74293;SDS011;64044;59.904;10.738;2023-02-08T01:27:12;46.15;;;7.47;;
74293;SDS011;64044;59.904;10.738;2023-02-08T01:29:37;55.80;;;7.82;;
74293;SDS011;64044;59.904;10.738;2023-02-08T01:32:03;35.38;;;7.30;;
74293;SDS011;64044;59.904;10.738;2023-02-08T01:34:29;37.83;;;6.45;;
74293;SDS011;64044;59.904;10.738;2023-02-08T01:36:54;41.53;;;8.27;;
74293;SDS011;64044;59.904;10.738;2023-02-08T01:39:20;78.72;;;8.52;;
74293;SDS011;64044;59.904;10.738;2023-02-08T01:41:46;42.55;;;6.68;;
74293;SDS011;64044;59.904;10.738;2023-02-08T01:46:38;62.47;;;7.97;;
74293;SDS011;64044;59.904;10.738;2023-02-08T01:49:11;72.88;;;8.85;;
74293;SDS011;64044;59.904;10.738;2023-02-08T01:52:01;62.20;;;8.43;;
74293;SDS011;64044;59.904;10.738;2023-02-08T01:54:42;84.40;;;9.75;;
74293;SDS011;64044;59.904;10.738;2023-02-08T01:57:17;55.20;;;8.63;;
74293;SDS011;64044;59.904;10.738;2023-02-08T01:59:54;129.65;;;9.73;;
74293;SDS011;64044;59.904;10.738;2023-02-08T02:02:26;51.00;;;9.02;;
74293;SDS011;64044;59.904;10.738;2023-02-08T02:04:52;44.30;;;6.90;;
74293;SDS011;64044;59.904;10.738;2023-02-08T02:07:19;63.78;;;9.00;;
74293;SDS011;64044;59.904;10.738;2023-02-08T02:12:23;12.88;;;5.50;;
74293;SDS011;64044;59.904;10.738;2023-02-08T02:14:49;13.23;;;6.15;;
74293;SDS011;64044;59.904;10.738;2023-02-08T02:17:16;14.00;;;5.82;;
74293;SDS011;64044;59.904;10.738;2023-02-08T02:20:05;27.60;;;6.95;;
74293;SDS011;64044;59.904;10.738;2023-02-08T02:39:35;38.40;;;7.00;;
74293;SDS011;64044;59.904;10.738;2023-02-08T02:42:12;55.75;;;7.63;;
74293;SDS011;64044;59.904;10.738;2023-02-08T02:47:56;44.13;;;9.05;;
74293;SDS011;64044;59.904;10.738;2023-02-08T02:50:45;28.65;;;6.60;;
74293;SDS011;64044;59.904;10.738;2023-02-08T02:53:19;54.75;;;7.90;;
74293;SDS011;64044;59.904;10.738;2023-02-08T02:56:09;46.13;;;7.38;;
74293;SDS011;64044;59.904;10.738;2023-02-08T02:58:39;51.60;;;8.05;;
74293;SDS011;64044;59.904;10.738;2023-02-08T03:01:06;48.72;;;8.00;;
74293;SDS011;64044;59.904;10.738;2023-02-08T03:03:32;41.65;;;7.22;;
74293;SDS011;64044;59.904;10.738;2023-02-08T03:06:03;33.70;;;6.05;;
74293;SDS011;64044;59.904;10.738;2023-02-08T03:16:37;16.95;;;6.55;;
74293;SDS011;64044;59.904;10.738;2023-02-08T03:22:22;41.33;;;6.85;;
74293;SDS011;64044;59.904;10.738;2023-02-08T03:24:55;29.70;;;6.15;;
74293;SDS011;64044;59.904;10.738;2023-02-08T03:27:32;36.88;;;7.25;;
74293;SDS011;64044;59.904;10.738;2023-02-08T03:30:08;28.98;;;6.22;;
74293;SDS011;64044;59.904;10.738;2023-02-08T03:37:58;20.50;;;5.50;;
74293;SDS011;64044;59.904;10.738;2023-02-08T03:40:28;35.28;;;6.60;;
74293;SDS011;64044;59.904;10.738;2023-02-08T03:45:58;22.27;;;5.88;;
74293;SDS011;64044;59.904;10.738;2023-02-08T03:48:45;25.00;;;6.38;;
74293;SDS011;64044;59.904;10.738;2023-02-08T03:51:15;37.20;;;6.63;;
74293;SDS011;64044;59.904;10.738;2023-02-08T03:53:45;32.85;;;4.88;;
74293;SDS011;64044;59.904;10.738;2023-02-08T03:56:19;34.00;;;6.20;;
74293;SDS011;64044;59.904;10.738;2023-02-08T03:58:56;38.33;;;6.45;;
74293;SDS011;64044;59.904;10.738;2023-02-08T04:03:53;24.88;;;4.13;;
74293;SDS011;64044;59.904;10.738;2023-02-08T04:06:21;32.33;;;5.55;;
74293;SDS011;64044;59.904;10.738;2023-02-08T04:08:47;28.42;;;5.60;;
74293;SDS011;64044;59.904;10.738;2023-02-08T04:11:14;23.83;;;5.13;;
74293;SDS011;64044;59.904;10.738;2023-02-08T04:13:40;14.15;;;4.80;;
74293;SDS011;64044;59.904;10.738;2023-02-08T04:16:07;50.45;;;6.40;;
74293;SDS011;64044;59.904;10.738;2023-02-08T04:18:35;34.55;;;5.97;;
74293;SDS011;64044;59.904;10.738;2023-02-08T04:21:01;39.55;;;5.75;;
74293;SDS011;64044;59.904;10.738;2023-02-08T04:23:27;41.13;;;6.32;;
74293;SDS011;64044;59.904;10.738;2023-02-08T04:25:52;41.47;;;6.93;;
74293;SDS011;64044;59.904;10.738;2023-02-08T04:28:18;44.60;;;6.40;;
74293;SDS011;64044;59.904;10.738;2023-02-08T04:30:44;34.72;;;5.53;;
74293;SDS011;64044;59.904;10.738;2023-02-08T04:33:09;30.42;;;6.15;;
74293;SDS011;64044;59.904;10.738;2023-02-08T04:35:37;27.40;;;5.25;;
74293;SDS011;64044;59.904;10.738;2023-02-08T04:38:03;48.90;;;6.22;;
74293;SDS011;64044;59.904;10.738;2023-02-08T04:40:28;39.92;;;6.45;;
74293;SDS011;64044;59.904;10.738;2023-02-08T04:42:55;26.02;;;5.47;;
74293;SDS011;64044;59.904;10.738;2023-02-08T04:45:21;49.42;;;8.95;;
74293;SDS011;64044;59.904;10.738;2023-02-08T04:47:47;31.70;;;6.60;;
74293;SDS011;64044;59.904;10.738;2023-02-08T04:50:13;44.25;;;8.40;;
74293;SDS011;64044;59.904;10.738;2023-02-08T04:52:39;38.60;;;8.98;;
74293;SDS011;64044;59.904;10.738;2023-02-08T04:55:04;51.05;;;7.85;;
74293;SDS011;64044;59.904;10.738;2023-02-08T04:57:30;46.22;;;9.38;;
74293;SDS011;64044;59.904;10.738;2023-02-08T04:59:56;29.38;;;8.10;;
74293;SDS011;64044;59.904;10.738;2023-02-08T05:02:22;21.25;;;8.30;;
74293;SDS011;64044;59.904;10.738;2023-02-08T05:04:47;22.58;;;8.20;;
74293;SDS011;64044;59.904;10.738;2023-02-08T05:07:13;25.10;;;8.48;;
74293;SDS011;64044;59.904;10.738;2023-02-08T05:09:39;33.83;;;8.38;;
74293;SDS011;64044;59.904;10.738;2023-02-08T05:12:05;25.15;;;7.90;;
74293;SDS011;64044;59.904;10.738;2023-02-08T05:14:30;44.67;;;7.68;;
74293;SDS011;64044;59.904;10.738;2023-02-08T05:16:56;38.22;;;8.32;;
74293;SDS011;64044;59.904;10.738;2023-02-08T05:19:22;43.03;;;7.90;;
74293;SDS011;64044;59.904;10.738;2023-02-08T05:21:47;44.00;;;8.43;;
74293;SDS011;64044;59.904;10.738;2023-02-08T05:24:13;19.90;;;8.10;;
74293;SDS011;64044;59.904;10.738;2023-02-08T05:26:39;24.50;;;7.43;;
74293;SDS011;64044;59.904;10.738;2023-02-08T05:29:05;18.50;;;8.13;;
74293;SDS011;64044;59.904;10.738;2023-02-08T05:31:31;22.67;;;8.50;;
74293;SDS011;64044;59.904;10.738;2023-02-08T05:33:56;21.52;;;8.38;;
74293;SDS011;64044;59.904;10.738;2023-02-08T05:36:22;14.60;;;7.40;;
74293;SDS011;64044;59.904;10.738;2023-02-08T05:38:48;20.38;;;7.10;;
74293;SDS011;64044;59.904;10.738;2023-02-08T05:41:15;27.17;;;7.60;;
74293;SDS011;64044;59.904;10.738;2023-02-08T05:43:41;23.92;;;7.05;;
74293;SDS011;64044;59.904;10.738;2023-02-08T05:46:07;33.35;;;7.93;;
74293;SDS011;64044;59.904;10.738;2023-02-08T05:48:32;21.02;;;7.65;;
74293;SDS011;64044;59.904;10.738;2023-02-08T05:50:58;27.63;;;7.25;;
74293;SDS011;64044;59.904;10.738;2023-02-08T05:53:24;30.52;;;9.00;;
74293;SDS011;64044;59.904;10.738;2023-02-08T05:55:51;40.22;;;8.68;;
74293;SDS011;64044;59.904;10.738;2023-02-08T05:58:17;25.25;;;8.10;;
74293;SDS011;64044;59.904;10.738;2023-02-08T06:00:43;26.48;;;8.57;;
74293;SDS011;64044;59.904;10.738;2023-02-08T06:03:09;20.25;;;6.97;;
74293;SDS011;64044;59.904;10.738;2023-02-08T06:05:36;19.50;;;6.90;;
74293;SDS011;64044;59.904;10.738;2023-02-08T06:08:04;32.42;;;7.40;;
74293;SDS011;64044;59.904;10.738;2023-02-08T06:10:31;18.58;;;6.85;;
74293;SDS011;64044;59.904;10.738;2023-02-08T06:12:56;20.08;;;6.00;;
74293;SDS011;64044;59.904;10.738;2023-02-08T06:15:23;27.70;;;6.75;;
74293;SDS011;64044;59.904;10.738;2023-02-08T06:17:49;16.17;;;5.18;;
74293;SDS011;64044;59.904;10.738;2023-02-08T06:20:15;15.82;;;5.82;;
74293;SDS011;64044;59.904;10.738;2023-02-08T06:22:40;17.23;;;5.72;;
74293;SDS011;64044;59.904;10.738;2023-02-08T06:25:06;15.25;;;5.55;;
74293;SDS011;64044;59.904;10.738;2023-02-08T06:27:32;19.83;;;5.85;;
74293;SDS011;64044;59.904;10.738;2023-02-08T06:29:58;31.48;;;7.22;;
74293;SDS011;64044;59.904;10.738;2023-02-08T06:32:23;23.73;;;6.13;;
74293;SDS011;64044;59.904;10.738;2023-02-08T06:34:50;45.28;;;7.97;;
74293;SDS011;64044;59.904;10.738;2023-02-08T06:37:16;29.50;;;7.90;;
74293;SDS011;64044;59.904;10.738;2023-02-08T06:39:42;30.23;;;6.63;;
74293;SDS011;64044;59.904;10.738;2023-02-08T06:42:08;28.10;;;7.70;;
74293;SDS011;64044;59.904;10.738;2023-02-08T06:44:34;28.35;;;6.95;;
74293;SDS011;64044;59.904;10.738;2023-02-08T06:46:59;25.20;;;7.70;;
74293;SDS011;64044;59.904;10.738;2023-02-08T06:49:25;20.63;;;6.53;;
74293;SDS011;64044;59.904;10.738;2023-02-08T06:51:51;15.93;;;5.70;;
74293;SDS011;64044;59.904;10.738;2023-02-08T06:54:16;23.67;;;5.45;;
74293;SDS011;64044;59.904;10.738;2023-02-08T06:56:42;16.70;;;5.55;;
74293;SDS011;64044;59.904;10.738;2023-02-08T06:59:08;11.10;;;4.97;;
74293;SDS011;64044;59.904;10.738;2023-02-08T07:01:34;19.30;;;5.78;;
74293;SDS011;64044;59.904;10.738;2023-02-08T07:04:00;14.38;;;4.80;;
74293;SDS011;64044;59.904;10.738;2023-02-08T07:06:26;29.45;;;5.80;;
74293;SDS011;64044;59.904;10.738;2023-02-08T07:08:51;17.02;;;5.82;;
74293;SDS011;64044;59.904;10.738;2023-02-08T07:11:18;19.08;;;5.13;;
74293;SDS011;64044;59.904;10.738;2023-02-08T07:13:48;28.20;;;7.22;;
74293;SDS011;64044;59.904;10.738;2023-02-08T07:16:15;42.33;;;7.73;;
74293;SDS011;64044;59.904;10.738;2023-02-08T07:18:42;26.45;;;6.40;;
74293;SDS011;64044;59.904;10.738;2023-02-08T07:21:08;38.65;;;7.30;;
74293;SDS011;64044;59.904;10.738;2023-02-08T07:23:36;36.95;;;7.10;;
74293;SDS011;64044;59.904;10.738;2023-02-08T07:26:06;51.28;;;7.55;;
74293;SDS011;64044;59.904;10.738;2023-02-08T07:28:34;32.65;;;6.70;;
74293;SDS011;64044;59.904;10.738;2023-02-08T07:31:07;43.90;;;7.60;;
74293;SDS011;64044;59.904;10.738;2023-02-08T07:33:35;35.67;;;6.57;;
74293;SDS011;64044;59.904;10.738;2023-02-08T07:36:01;36.95;;;6.20;;
74293;SDS011;64044;59.904;10.738;2023-02-08T07:38:29;38.92;;;6.25;;
74293;SDS011;64044;59.904;10.738;2023-02-08T07:41:13;49.25;;;7.20;;
74293;SDS011;64044;59.904;10.738;2023-02-08T07:43:39;32.72;;;6.32;;
74293;SDS011;64044;59.904;10.738;2023-02-08T07:46:12;39.00;;;5.90;;
74293;SDS011;64044;59.904;10.738;2023-02-08T07:48:40;45.05;;;7.43;;
74293;SDS011;64044;59.904;10.738;2023-02-08T07:51:06;40.58;;;5.38;;
74293;SDS011;64044;59.904;10.738;2023-02-08T07:53:33;43.60;;;6.20;;
74293;SDS011;64044;59.904;10.738;2023-02-08T07:55:59;31.27;;;6.70;;
74293;SDS011;64044;59.904;10.738;2023-02-08T07:58:25;17.35;;;6.43;;
74293;SDS011;64044;59.904;10.738;2023-02-08T08:00:51;20.20;;;6.28;;
74293;SDS011;64044;59.904;10.738;2023-02-08T08:03:16;8.90;;;4.32;;
74293;SDS011;64044;59.904;10.738;2023-02-08T08:05:42;9.25;;;4.07;;
74293;SDS011;64044;59.904;10.738;2023-02-08T08:08:09;17.48;;;4.55;;
74293;SDS011;64044;59.904;10.738;2023-02-08T08:10:35;19.35;;;4.40;;
74293;SDS011;64044;59.904;10.738;2023-02-08T08:13:02;11.80;;;4.07;;
74293;SDS011;64044;59.904;10.738;2023-02-08T08:15:28;12.07;;;4.80;;
74293;SDS011;64044;59.904;10.738;2023-02-08T08:17:54;28.58;;;5.43;;
74293;SDS011;64044;59.904;10.738;2023-02-08T08:20:19;17.67;;;4.55;;
74293;SDS011;64044;59.904;10.738;2023-02-08T08:22:45;24.33;;;4.90;;
74293;SDS011;64044;59.904;10.738;2023-02-08T08:25:11;32.80;;;5.20;;
74293;SDS011;64044;59.904;10.738;2023-02-08T08:27:37;15.40;;;4.22;;
74293;SDS011;64044;59.904;10.738;2023-02-08T08:30:07;27.70;;;5.72;;
74293;SDS011;64044;59.904;10.738;2023-02-08T08:32:36;22.77;;;5.03;;
74293;SDS011;64044;59.904;10.738;2023-02-08T08:35:03;13.00;;;4.75;;
74293;SDS011;64044;59.904;10.738;2023-02-08T08:37:29;21.45;;;4.97;;
74293;SDS011;64044;59.904;10.738;2023-02-08T08:40:01;36.05;;;6.47;;
74293;SDS011;64044;59.904;10.738;2023-02-08T08:42:28;17.38;;;5.60;;
74293;SDS011;64044;59.904;10.738;2023-02-08T08:44:53;21.77;;;5.85;;
74293;SDS011;64044;59.904;10.738;2023-02-08T08:47:19;23.67;;;5.85;;
74293;SDS011;64044;59.904;10.738;2023-02-08T08:49:45;23.95;;;6.60;;
74293;SDS011;64044;59.904;10.738;2023-02-08T08:52:11;21.13;;;6.85;;
74293;SDS011;64044;59.904;10.738;2023-02-08T08:54:37;24.08;;;7.40;;
74293;SDS011;64044;59.904;10.738;2023-02-08T08:57:03;26.80;;;7.07;;
74293;SDS011;64044;59.904;10.738;2023-02-08T08:59:29;22.40;;;7.00;;
74293;SDS011;64044;59.904;10.738;2023-02-08T09:01:55;21.50;;;7.50;;
74293;SDS011;64044;59.904;10.738;2023-02-08T09:04:21;31.50;;;7.82;;
74293;SDS011;64044;59.904;10.738;2023-02-08T09:06:47;25.95;;;8.02;;
74293;SDS011;64044;59.904;10.738;2023-02-08T09:09:14;25.05;;;8.38;;
74293;SDS011;64044;59.904;10.738;2023-02-08T09:11:41;21.20;;;8.15;;
74293;SDS011;64044;59.904;10.738;2023-02-08T09:14:07;18.95;;;6.43;;
74293;SDS011;64044;59.904;10.738;2023-02-08T09:16:32;15.75;;;6.38;;
74293;SDS011;64044;59.904;10.738;2023-02-08T09:19:02;19.08;;;5.97;;
74293;SDS011;64044;59.904;10.738;2023-02-08T09:21:29;14.48;;;5.00;;
74293;SDS011;64044;59.904;10.738;2023-02-08T09:23:55;12.65;;;5.68;;
74293;SDS011;64044;59.904;10.738;2023-02-08T09:26:21;12.80;;;4.72;;
74293;SDS011;64044;59.904;10.738;2023-02-08T09:28:48;11.50;;;5.07;;
74293;SDS011;64044;59.904;10.738;2023-02-08T09:31:18;9.90;;;4.15;;
74293;SDS011;64044;59.904;10.738;2023-02-08T09:33:45;12.25;;;4.80;;
74293;SDS011;64044;59.904;10.738;2023-02-08T09:36:11;12.68;;;4.85;;
74293;SDS011;64044;59.904;10.738;2023-02-08T09:38:37;12.80;;;4.50;;
74293;SDS011;64044;59.904;10.738;2023-02-08T09:43:30;17.63;;;6.00;;
74293;SDS011;64044;59.904;10.738;2023-02-08T09:46:14;18.73;;;6.53;;
74293;SDS011;64044;59.904;10.738;2023-02-08T09:48:45;27.67;;;6.80;;
74293;SDS011;64044;59.904;10.738;2023-02-08T09:56:43;26.10;;;7.90;;
74293;SDS011;64044;59.904;10.738;2023-02-08T09:59:15;32.83;;;6.80;;
74293;SDS011;64044;59.904;10.738;2023-02-08T10:01:58;19.55;;;7.53;;
74293;SDS011;64044;59.904;10.738;2023-02-08T10:07:20;23.30;;;6.55;;
74293;SDS011;64044;59.904;10.738;2023-02-08T10:09:46;29.58;;;6.72;;
74293;SDS011;64044;59.904;10.738;2023-02-08T10:12:21;23.73;;;7.72;;
74293;SDS011;64044;59.904;10.738;2023-02-08T10:26:43;47.95;;;7.13;;
74293;SDS011;64044;59.904;10.738;2023-02-08T10:37:28;64.70;;;7.93;;
74293;SDS011;64044;59.904;10.738;2023-02-08T10:40:44;47.05;;;6.75;;
74293;SDS011;64044;59.904;10.738;2023-02-08T10:42:59;27.80;;;6.85;;
74293;SDS011;64044;59.904;10.738;2023-02-08T10:51:28;28.77;;;5.70;;
74293;SDS011;64044;59.904;10.738;2023-02-08T10:53:55;30.75;;;6.93;;
74293;SDS011;64044;59.904;10.738;2023-02-08T10:59:29;22.35;;;6.40;;
74293;SDS011;64044;59.904;10.738;2023-02-08T11:04:22;15.38;;;7.28;;
74293;SDS011;64044;59.904;10.738;2023-02-08T11:06:48;27.15;;;7.65;;
74293;SDS011;64044;59.904;10.738;2023-02-08T11:09:29;27.50;;;6.88;;
74293;SDS011;64044;59.904;10.738;2023-02-08T11:11:56;33.53;;;8.13;;
74293;SDS011;64044;59.904;10.738;2023-02-08T11:14:37;24.13;;;6.68;;
74293;SDS011;64044;59.904;10.738;2023-02-08T11:17:05;52.42;;;8.43;;
74293;SDS011;64044;59.904;10.738;2023-02-08T11:19:50;53.83;;;7.78;;
74293;SDS011;64044;59.904;10.738;2023-02-08T11:22:17;18.65;;;7.25;;
74293;SDS011;64044;59.904;10.738;2023-02-08T11:24:45;27.40;;;7.50;;
74293;SDS011;64044;59.904;10.738;2023-02-08T11:27:32;63.08;;;8.65;;
74293;SDS011;64044;59.904;10.738;2023-02-08T11:32:47;34.35;;;8.25;;
74293;SDS011;64044;59.904;10.738;2023-02-08T11:38:27;20.83;;;8.88;;
74293;SDS011;64044;59.904;10.738;2023-02-08T11:40:55;21.92;;;8.23;;
74293;SDS011;64044;59.904;10.738;2023-02-08T11:43:25;19.75;;;7.65;;
74293;SDS011;64044;59.904;10.738;2023-02-08T11:45:53;17.90;;;7.85;;
74293;SDS011;64044;59.904;10.738;2023-02-08T11:48:23;21.50;;;7.75;;
74293;SDS011;64044;59.904;10.738;2023-02-08T11:51:03;26.20;;;9.48;;
74293;SDS011;64044;59.904;10.738;2023-02-08T11:53:34;20.58;;;9.05;;
74293;SDS011;64044;59.904;10.738;2023-02-08T11:56:13;27.90;;;11.27;;
74293;SDS011;64044;59.904;10.738;2023-02-08T12:01:44;19.67;;;8.55;;
74293;SDS011;64044;59.904;10.738;2023-02-08T12:04:10;17.30;;;8.93;;
74293;SDS011;64044;59.904;10.738;2023-02-08T12:18:00;21.33;;;8.52;;
74293;SDS011;64044;59.904;10.738;2023-02-08T12:20:44;17.80;;;8.73;;
74293;SDS011;64044;59.904;10.738;2023-02-08T12:26:13;22.38;;;9.93;;
74293;SDS011;64044;59.904;10.738;2023-02-08T12:53:56;23.33;;;9.57;;
74293;SDS011;64044;59.904;10.738;2023-02-08T12:56:32;22.45;;;9.82;;
74293;SDS011;64044;59.904;10.738;2023-02-08T12:59:03;18.88;;;10.20;;
74293;SDS011;64044;59.904;10.738;2023-02-08T13:01:35;21.10;;;10.40;;
74293;SDS011;64044;59.904;10.738;2023-02-08T13:04:08;20.33;;;9.98;;
74293;SDS011;64044;59.904;10.738;2023-02-08T13:06:43;21.85;;;9.77;;
74293;SDS011;64044;59.904;10.738;2023-02-08T13:12:11;18.02;;;8.88;;
74293;SDS011;64044;59.904;10.738;2023-02-08T13:17:27;18.92;;;8.35;;
74293;SDS011;64044;59.904;10.738;2023-02-08T13:20:27;16.95;;;7.93;;
74293;SDS011;64044;59.904;10.738;2023-02-08T13:23:03;17.67;;;7.82;;
74293;SDS011;64044;59.904;10.738;2023-02-08T13:25:47;21.00;;;8.50;;
74293;SDS011;64044;59.904;10.738;2023-02-08T13:28:21;16.63;;;8.48;;
74293;SDS011;64044;59.904;10.738;2023-02-08T13:33:55;15.85;;;7.97;;
74293;SDS011;64044;59.904;10.738;2023-02-08T13:39:29;14.40;;;7.50;;
74293;SDS011;64044;59.904;10.738;2023-02-08T13:42:05;21.85;;;8.73;;
74293;SDS011;64044;59.904;10.738;2023-02-08T13:44:42;48.40;;;15.13;;
74293;SDS011;64044;59.904;10.738;2023-02-08T13:53:13;17.70;;;7.38;;
74293;SDS011;64044;59.904;10.738;2023-02-08T13:55:54;18.08;;;7.53;;
74293;SDS011;64044;59.904;10.738;2023-02-08T13:58:34;13.30;;;6.82;;
74293;SDS011;64044;59.904;10.738;2023-02-08T14:01:20;13.23;;;6.72;;
74293;SDS011;64044;59.904;10.738;2023-02-08T14:04:15;15.93;;;7.30;;
74293;SDS011;64044;59.904;10.738;2023-02-08T14:09:27;11.05;;;6.00;;
74293;SDS011;64044;59.904;10.738;2023-02-08T14:17:43;11.10;;;6.18;;
74293;SDS011;64044;59.904;10.738;2023-02-08T14:20:18;13.52;;;5.25;;
74293;SDS011;64044;59.904;10.738;2023-02-08T14:22:55;8.87;;;4.80;;
74293;SDS011;64044;59.904;10.738;2023-02-08T14:25:42;11.60;;;5.10;;
74293;SDS011;64044;59.904;10.738;2023-02-08T14:30:55;12.70;;;5.57;;
74293;SDS011;64044;59.904;10.738;2023-02-08T14:33:27;8.98;;;5.07;;
74293;SDS011;64044;59.904;10.738;2023-02-08T14:35:57;8.55;;;4.82;;
74293;SDS011;64044;59.904;10.738;2023-02-08T14:41:40;11.95;;;5.18;;
74293;SDS011;64044;59.904;10.738;2023-02-08T14:47:03;9.13;;;3.13;;
74293;SDS011;64044;59.904;10.738;2023-02-08T14:49:36;7.18;;;2.60;;
74293;SDS011;64044;59.904;10.738;2023-02-08T14:52:09;9.50;;;2.33;;
74293;SDS011;64044;59.904;10.738;2023-02-08T14:57:42;7.18;;;2.53;;
74293;SDS011;64044;59.904;10.738;2023-02-08T15:00:19;8.55;;;3.63;;
74293;SDS011;64044;59.904;10.738;2023-02-08T15:03:11;11.90;;;4.63;;
74293;SDS011;64044;59.904;10.738;2023-02-08T15:08:33;11.23;;;5.35;;
74293;SDS011;64044;59.904;10.738;2023-02-08T15:10:59;10.60;;;3.20;;
74293;SDS011;64044;59.904;10.738;2023-02-08T15:13:24;8.02;;;3.28;;
74293;SDS011;64044;59.904;10.738;2023-02-08T15:15:53;4.95;;;2.40;;
74293;SDS011;64044;59.904;10.738;2023-02-08T15:18:22;8.90;;;2.70;;
74293;SDS011;64044;59.904;10.738;2023-02-08T15:21:04;9.87;;;2.90;;
74293;SDS011;64044;59.904;10.738;2023-02-08T15:23:39;11.52;;;3.33;;
74293;SDS011;64044;59.904;10.738;2023-02-08T15:26:16;7.60;;;3.17;;
74293;SDS011;64044;59.904;10.738;2023-02-08T15:28:47;10.50;;;3.35;;
74293;SDS011;64044;59.904;10.738;2023-02-08T15:31:22;7.72;;;3.08;;
74293;SDS011;64044;59.904;10.738;2023-02-08T15:33:56;10.13;;;2.92;;
74293;SDS011;64044;59.904;10.738;2023-02-08T15:38:49;12.18;;;3.85;;
74293;SDS011;64044;59.904;10.738;2023-02-08T15:41:23;16.52;;;5.20;;
74293;SDS011;64044;59.904;10.738;2023-02-08T15:43:50;14.40;;;4.32;;
74293;SDS011;64044;59.904;10.738;2023-02-08T15:46:45;16.10;;;4.65;;
74293;SDS011;64044;59.904;10.738;2023-02-08T15:49:13;12.63;;;4.78;;
74293;SDS011;64044;59.904;10.738;2023-02-08T15:51:44;15.85;;;5.00;;
74293;SDS011;64044;59.904;10.738;2023-02-08T15:54:15;17.08;;;5.20;;
74293;SDS011;64044;59.904;10.738;2023-02-08T15:59:28;13.00;;;4.57;;
74293;SDS011;64044;59.904;10.738;2023-02-08T16:01:57;14.50;;;4.97;;
74293;SDS011;64044;59.904;10.738;2023-02-08T16:04:44;18.58;;;5.70;;
74293;SDS011;64044;59.904;10.738;2023-02-08T16:10:03;12.27;;;4.68;;
74293;SDS011;64044;59.904;10.738;2023-02-08T16:12:31;13.32;;;4.45;;
74293;SDS011;64044;59.904;10.738;2023-02-08T16:14:57;14.77;;;5.28;;
74293;SDS011;64044;59.904;10.738;2023-02-08T16:20:22;14.00;;;4.60;;
74293;SDS011;64044;59.904;10.738;2023-02-08T16:22:54;13.38;;;4.10;;
74293;SDS011;64044;59.904;10.738;2023-02-08T16:30:56;14.50;;;3.70;;
74293;SDS011;64044;59.904;10.738;2023-02-08T16:33:24;9.68;;;3.33;;
74293;SDS011;64044;59.904;10.738;2023-02-08T16:35:50;9.00;;;3.58;;
74293;SDS011;64044;59.904;10.738;2023-02-08T16:38:18;11.32;;;3.67;;
74293;SDS011;64044;59.904;10.738;2023-02-08T16:40:53;11.68;;;3.55;;
74293;SDS011;64044;59.904;10.738;2023-02-08T16:43:31;16.80;;;3.92;;
74293;SDS011;64044;59.904;10.738;2023-02-08T16:53:56;14.50;;;3.90;;
74293;SDS011;64044;59.904;10.738;2023-02-08T16:56:26;14.10;;;3.83;;
74293;SDS011;64044;59.904;10.738;2023-02-08T16:58:52;17.92;;;3.95;;
74293;SDS011;64044;59.904;10.738;2023-02-08T17:01:19;15.88;;;4.10;;
74293;SDS011;64044;59.904;10.738;2023-02-08T17:03:48;26.40;;;5.35;;
74293;SDS011;64044;59.904;10.738;2023-02-08T17:06:19;20.27;;;4.78;;
74293;SDS011;64044;59.904;10.738;2023-02-08T17:08:54;25.00;;;5.03;;
74293;SDS011;64044;59.904;10.738;2023-02-08T17:11:21;18.13;;;4.40;;
74293;SDS011;64044;59.904;10.738;2023-02-08T17:13:46;22.75;;;4.65;;
74293;SDS011;64044;59.904;10.738;2023-02-08T17:16:16;19.23;;;4.43;;
74293;SDS011;64044;59.904;10.738;2023-02-08T17:18:47;18.25;;;4.60;;
74293;SDS011;64044;59.904;10.738;2023-02-08T17:21:14;24.23;;;5.47;;
74293;SDS011;64044;59.904;10.738;2023-02-08T17:23:41;22.38;;;4.82;;
74293;SDS011;64044;59.904;10.738;2023-02-08T17:26:14;22.58;;;5.25;;
74293;SDS011;64044;59.904;10.738;2023-02-08T17:28:54;25.55;;;5.40;;
74293;SDS011;64044;59.904;10.738;2023-02-08T17:31:21;19.17;;;4.75;;
74293;SDS011;64044;59.904;10.738;2023-02-08T17:33:48;24.02;;;5.38;;
74293;SDS011;64044;59.904;10.738;2023-02-08T17:36:14;24.83;;;5.50;;
74293;SDS011;64044;59.904;10.738;2023-02-08T17:38:42;27.67;;;5.20;;
74293;SDS011;64044;59.904;10.738;2023-02-08T17:41:13;27.02;;;5.28;;
74293;SDS011;64044;59.904;10.738;2023-02-08T17:43:43;19.80;;;5.20;;
74293;SDS011;64044;59.904;10.738;2023-02-08T17:46:18;21.00;;;5.05;;
74293;SDS011;64044;59.904;10.738;2023-02-08T17:48:48;21.80;;;5.47;;
74293;SDS011;64044;59.904;10.738;2023-02-08T17:51:16;23.65;;;5.57;;
74293;SDS011;64044;59.904;10.738;2023-02-08T17:53:44;27.02;;;5.85;;
74293;SDS011;64044;59.904;10.738;2023-02-08T17:56:11;34.72;;;4.93;;
74293;SDS011;64044;59.904;10.738;2023-02-08T17:58:38;24.67;;;5.28;;
74293;SDS011;64044;59.904;10.738;2023-02-08T18:01:05;28.25;;;5.97;;